Time;durP1;ratioP1;P1;durP2;ratioP2;P2;SDS_P1;SDS_P2;PMS_P1;PMS_P2;Temp;Humidity;BMP_temperature;BMP_pressure;BME280_temperature;BME280_humidity;BME280_pressure;Samples;Min_cycle;Max_cycle;Signal;HPM_P1;HPM_P2
2023/12/11 00:01:35;;;;;;;25.45;3.63;;;11.50;99.90;;;;;;4969604;28;20039;-66
2023/12/11 00:04:01;;;;;;;29.60;3.08;;;11.50;99.90;;;;;;4972245;28;20030;-66
2023/12/11 00:06:26;;;;;;;30.20;3.75;;;11.50;99.90;;;;;;4971687;28;20138;-66
2023/12/11 00:08:52;;;;;;;23.48;3.83;;;11.50;99.90;;;;;;4972894;28;20259;-66
2023/12/11 00:11:17;;;;;;;25.20;2.92;;;11.50;99.90;;;;;;4971009;28;20027;-65
2023/12/11 00:13:43;;;;;;;24.77;3.70;;;11.40;99.90;;;;;;4969299;28;20031;-66
2023/12/11 00:16:08;;;;;;;20.55;3.13;;;11.40;99.90;;;;;;4969543;28;20038;-65
2023/12/11 00:18:34;;;;;;;22.00;4.03;;;11.40;99.90;;;;;;4972780;28;20556;-65
2023/12/11 00:21:00;;;;;;;29.70;4.00;;;11.40;99.90;;;;;;4971102;28;20493;-65
2023/12/11 00:23:26;;;;;;;20.15;2.92;;;11.40;99.90;;;;;;4972699;28;20465;-66
2023/12/11 00:25:52;;;;;;;22.42;3.72;;;11.40;99.90;;;;;;4971785;28;20027;-65
2023/12/11 00:28:17;;;;;;;26.02;3.60;;;11.40;99.90;;;;;;4970623;28;20090;-66
2023/12/11 00:30:43;;;;;;;27.65;3.45;;;11.50;99.90;;;;;;4967879;28;20019;-66
2023/12/11 00:33:09;;;;;;;22.05;2.85;;;11.50;99.90;;;;;;4970185;28;20517;-66
2023/12/11 00:35:34;;;;;;;39.67;3.72;;;11.50;99.90;;;;;;4969058;28;20398;-66
2023/12/11 00:38:00;;;;;;;20.67;3.78;;;11.40;99.90;;;;;;4973190;28;20035;-65
2023/12/11 00:40:26;;;;;;;18.45;3.72;;;11.40;99.90;;;;;;4972064;28;20027;-65
2023/12/11 00:42:51;;;;;;;33.28;3.72;;;11.40;99.90;;;;;;4966552;28;20485;-65
2023/12/11 00:45:17;;;;;;;28.10;4.18;;;11.50;99.90;;;;;;4970405;28;20054;-65
2023/12/11 00:47:42;;;;;;;30.35;3.03;;;11.50;99.90;;;;;;4970320;28;20106;-65
2023/12/11 00:50:08;;;;;;;22.75;3.35;;;11.50;99.90;;;;;;4970080;28;20039;-65
2023/12/11 00:52:34;;;;;;;26.83;4.30;;;11.50;99.90;;;;;;4970344;28;20123;-66
2023/12/11 00:54:59;;;;;;;28.02;3.45;;;11.50;99.90;;;;;;4970946;28;20481;-65
2023/12/11 00:57:25;;;;;;;19.10;2.80;;;11.60;99.90;;;;;;4970110;28;20030;-65
2023/12/11 00:59:51;;;;;;;29.35;3.10;;;11.60;99.90;;;;;;4970336;28;20073;-65
2023/12/11 01:02:17;;;;;;;28.58;3.28;;;11.60;99.90;;;;;;4966444;28;20109;-65
2023/12/11 01:04:43;;;;;;;26.10;4.18;;;11.50;99.90;;;;;;4968102;28;20034;-65
2023/12/11 01:07:09;;;;;;;27.27;3.65;;;11.60;99.90;;;;;;4969556;28;20027;-65
2023/12/11 01:09:34;;;;;;;26.60;3.15;;;11.60;99.90;;;;;;4970899;28;20038;-65
2023/12/11 01:12:00;;;;;;;27.92;3.15;;;11.60;99.90;;;;;;4966920;28;20438;-65
2023/12/11 01:14:26;;;;;;;23.45;3.30;;;11.60;99.90;;;;;;4967649;28;20584;-65
2023/12/11 01:16:52;;;;;;;30.75;4.10;;;11.60;99.90;;;;;;4968637;28;20034;-65
2023/12/11 01:19:17;;;;;;;33.58;3.75;;;11.60;99.90;;;;;;4970604;28;20019;-65
2023/12/11 01:21:45;;;;;;;32.10;4.10;;;11.50;99.90;;;;;;4969082;28;20042;-65
2023/12/11 01:24:10;;;;;;;36.90;4.43;;;11.40;99.90;;;;;;4970053;28;20030;-65
2023/12/11 01:26:38;;;;;;;40.83;4.53;;;11.50;99.90;;;;;;4969527;28;20042;-65
2023/12/11 01:29:03;;;;;;;27.05;3.40;;;11.30;99.90;;;;;;4969803;28;20086;-65
2023/12/11 01:31:29;;;;;;;35.63;2.88;;;11.40;99.90;;;;;;4969424;28;20046;-66
2023/12/11 01:33:54;;;;;;;24.23;3.22;;;11.40;99.90;;;;;;4970960;28;20035;-65
2023/12/11 01:36:20;;;;;;;27.98;3.05;;;11.40;99.90;;;;;;4967615;28;20074;-65
2023/12/11 01:38:47;;;;;;;28.27;3.67;;;11.40;99.90;;;;;;4969110;28;20047;-65
2023/12/11 01:41:12;;;;;;;26.02;3.28;;;11.50;99.90;;;;;;4969319;28;20019;-66
2023/12/11 01:43:38;;;;;;;30.77;4.72;;;11.50;99.90;;;;;;4966528;28;20033;-65
2023/12/11 01:46:07;;;;;;;25.55;3.47;;;11.40;99.90;;;;;;4968523;28;20081;-65
2023/12/11 01:48:33;;;;;;;27.25;3.50;;;11.30;99.90;;;;;;4969268;28;20408;-65
2023/12/11 01:50:59;;;;;;;30.45;3.00;;;11.30;99.90;;;;;;4969220;28;20045;-65
2023/12/11 01:53:27;;;;;;;24.63;3.97;;;11.30;99.90;;;;;;4967574;28;20490;-65
2023/12/11 01:55:52;;;;;;;23.42;3.58;;;11.40;99.90;;;;;;4970519;28;20026;-66
2023/12/11 01:58:19;;;;;;;23.77;3.53;;;11.50;99.90;;;;;;4970361;28;20089;-65
2023/12/11 02:00:45;;;;;;;33.30;3.72;;;11.50;99.90;;;;;;4969483;28;20038;-65
2023/12/11 02:03:10;;;;;;;27.38;3.95;;;11.50;99.90;;;;;;4970973;28;20022;-65
2023/12/11 02:05:36;;;;;;;32.67;5.95;;;11.50;99.90;;;;;;4971595;28;20080;-66
2023/12/11 02:08:02;;;;;;;33.40;4.07;;;11.50;99.90;;;;;;4968731;28;20118;-64
2023/12/11 02:10:28;;;;;;;29.88;3.55;;;11.50;99.90;;;;;;4966848;28;20117;-65
2023/12/11 02:12:53;;;;;;;31.25;3.97;;;11.50;99.90;;;;;;4964302;28;20035;-65
2023/12/11 02:15:41;;;;;;;29.80;3.35;;;11.60;99.90;;;;;;4970503;28;20223;-65
2023/12/11 02:18:08;;;;;;;27.48;2.97;;;11.60;99.90;;;;;;4969966;28;20069;-64
2023/12/11 02:20:35;;;;;;;28.40;3.78;;;11.60;99.90;;;;;;4970283;28;20557;-65
2023/12/11 02:23:03;;;;;;;30.00;3.15;;;11.60;99.90;;;;;;4969686;28;20019;-65
2023/12/11 02:25:31;;;;;;;29.58;2.72;;;11.60;99.90;;;;;;4966626;28;20035;-65
2023/12/11 02:27:57;;;;;;;22.88;3.47;;;11.60;99.90;;;;;;4969070;28;20409;-65
2023/12/11 02:30:24;;;;;;;24.00;3.15;;;11.60;99.90;;;;;;4967754;28;20034;-65
2023/12/11 02:32:52;;;;;;;21.25;3.80;;;11.60;99.90;;;;;;4965906;28;20501;-64
2023/12/11 02:35:18;;;;;;;33.55;3.10;;;11.60;99.90;;;;;;4968100;28;20440;-65
2023/12/11 02:37:43;;;;;;;21.05;3.22;;;11.70;99.90;;;;;;4969201;28;20023;-65
2023/12/11 02:40:09;;;;;;;29.67;3.80;;;11.70;99.90;;;;;;4965569;28;20023;-65
2023/12/11 02:42:35;;;;;;;16.15;3.00;;;11.70;99.90;;;;;;4967563;28;20023;-65
2023/12/11 02:45:00;;;;;;;34.28;3.10;;;11.70;99.90;;;;;;4966666;28;20027;-64
2023/12/11 02:47:26;;;;;;;18.25;3.22;;;11.70;99.90;;;;;;4969510;28;20027;-65
2023/12/11 02:49:51;;;;;;;27.00;3.83;;;11.70;99.90;;;;;;4973209;28;20014;-65
2023/12/11 02:52:17;;;;;;;26.27;3.55;;;11.60;99.90;;;;;;4972147;28;20019;-65
2023/12/11 02:54:42;;;;;;;35.20;4.15;;;11.60;99.90;;;;;;4971595;28;20027;-65
2023/12/11 02:57:08;;;;;;;22.17;3.58;;;11.60;99.90;;;;;;4971828;28;20027;-64
2023/12/11 02:59:34;;;;;;;29.35;3.55;;;11.60;99.90;;;;;;4972910;28;20030;-65
2023/12/11 03:01:59;;;;;;;22.35;3.65;;;11.60;99.90;;;;;;4973737;28;20030;-65
2023/12/11 03:04:25;;;;;;;24.63;3.40;;;11.60;99.90;;;;;;4966919;28;20486;-65
2023/12/11 03:06:51;;;;;;;33.28;3.20;;;11.70;99.90;;;;;;4969959;28;20034;-64
2023/12/11 03:09:17;;;;;;;22.55;3.78;;;11.70;99.90;;;;;;4970987;28;20030;-65
2023/12/11 03:11:42;;;;;;;20.58;2.63;;;11.60;99.90;;;;;;4970376;28;20031;-65
2023/12/11 03:14:08;;;;;;;27.80;3.55;;;11.60;99.90;;;;;;4971847;28;20571;-64
2023/12/11 03:16:33;;;;;;;22.92;3.13;;;11.60;99.90;;;;;;4969406;28;20109;-65
2023/12/11 03:18:59;;;;;;;26.30;3.90;;;11.50;99.90;;;;;;4972761;28;20055;-65
2023/12/11 03:21:25;;;;;;;24.77;3.72;;;11.50;99.90;;;;;;4972850;28;20031;-65
2023/12/11 03:23:50;;;;;;;24.80;3.80;;;11.40;99.90;;;;;;4972041;28;20568;-65
2023/12/11 03:26:16;;;;;;;47.35;4.05;;;11.40;99.90;;;;;;4973191;28;20069;-65
2023/12/11 03:28:41;;;;;;;30.45;4.18;;;11.50;99.90;;;;;;4971296;28;20378;-65
2023/12/11 03:31:07;;;;;;;27.30;4.57;;;11.40;99.90;;;;;;4970085;28;20568;-64
2023/12/11 03:33:32;;;;;;;27.52;4.22;;;11.60;99.90;;;;;;4966325;28;20031;-65
2023/12/11 03:35:58;;;;;;;23.50;3.80;;;11.70;99.90;;;;;;4971420;28;20489;-66
2023/12/11 03:38:23;;;;;;;22.98;3.15;;;11.60;99.90;;;;;;4970359;28;20034;-65
2023/12/11 03:40:49;;;;;;;26.42;3.13;;;11.70;99.90;;;;;;4971378;28;20034;-65
2023/12/11 03:43:14;;;;;;;22.83;3.03;;;11.60;99.90;;;;;;4972331;28;20039;-65
2023/12/11 03:45:40;;;;;;;25.35;3.75;;;11.60;99.90;;;;;;4970953;28;20085;-65
2023/12/11 03:48:05;;;;;;;24.65;3.53;;;11.60;99.90;;;;;;4969627;28;20023;-65
2023/12/11 03:50:31;;;;;;;34.47;3.53;;;11.60;99.90;;;;;;4970235;28;20023;-65
2023/12/11 03:52:56;;;;;;;25.65;3.42;;;11.60;99.90;;;;;;4972595;28;20456;-65
2023/12/11 03:55:22;;;;;;;21.85;2.58;;;11.70;99.90;;;;;;4971812;28;20031;-65
2023/12/11 03:57:47;;;;;;;33.78;4.32;;;11.60;99.90;;;;;;4972406;28;20019;-65
2023/12/11 04:00:14;;;;;;;27.73;3.30;;;11.50;99.90;;;;;;4971172;28;20015;-64
2023/12/11 04:02:39;;;;;;;22.60;3.00;;;11.50;99.90;;;;;;4968948;28;20029;-66
2023/12/11 04:05:05;;;;;;;24.73;3.05;;;11.50;99.90;;;;;;4969395;28;20110;-65
2023/12/11 04:07:31;;;;;;;27.50;3.30;;;11.60;99.90;;;;;;4964769;28;20419;-65
2023/12/11 04:09:56;;;;;;;33.35;4.03;;;11.50;99.90;;;;;;4966854;28;20058;-65
2023/12/11 04:12:22;;;;;;;20.35;3.20;;;11.70;99.90;;;;;;4972043;28;20062;-65
2023/12/11 04:14:48;;;;;;;23.02;2.95;;;11.70;99.90;;;;;;4969303;28;20026;-65
2023/12/11 04:17:13;;;;;;;20.55;2.55;;;11.70;99.90;;;;;;4970647;28;20023;-64
2023/12/11 04:19:39;;;;;;;26.15;3.17;;;11.70;99.90;;;;;;4972480;28;20031;-64
2023/12/11 04:22:04;;;;;;;18.58;2.55;;;11.70;99.90;;;;;;4969727;28;20030;-65
2023/12/11 04:24:30;;;;;;;20.63;3.40;;;11.60;99.90;;;;;;4969970;28;20030;-65
2023/12/11 04:26:55;;;;;;;31.77;4.05;;;11.60;99.90;;;;;;4972314;28;20142;-66
2023/12/11 04:29:21;;;;;;;21.75;3.05;;;11.70;99.90;;;;;;4970970;28;20062;-65
2023/12/11 04:31:46;;;;;;;20.38;2.63;;;11.70;99.90;;;;;;4971966;28;20114;-66
2023/12/11 04:34:12;;;;;;;23.73;3.58;;;11.70;99.90;;;;;;4972477;28;20477;-65
2023/12/11 04:36:42;;;;;;;22.05;3.05;;;11.70;99.90;;;;;;4970386;28;20081;-65
2023/12/11 04:39:07;;;;;;;27.48;3.10;;;11.60;99.90;;;;;;4964852;28;20105;-65
2023/12/11 04:41:33;;;;;;;26.98;3.20;;;11.60;99.90;;;;;;4968241;28;20490;-65
2023/12/11 04:43:58;;;;;;;23.75;3.42;;;11.60;99.90;;;;;;4964485;28;20114;-67
2023/12/11 04:46:24;;;;;;;30.17;4.20;;;11.80;99.90;;;;;;4969971;28;20440;-65
2023/12/11 04:48:49;;;;;;;26.50;3.00;;;11.80;99.90;;;;;;4966323;28;20027;-64
2023/12/11 04:51:15;;;;;;;21.08;2.50;;;11.90;99.90;;;;;;4968523;28;20059;-64
2023/12/11 04:53:40;;;;;;;18.35;3.30;;;11.90;99.90;;;;;;4969276;28;20133;-65
2023/12/11 04:56:07;;;;;;;25.83;2.83;;;11.90;99.90;;;;;;4968676;28;20432;-65
2023/12/11 04:58:32;;;;;;;25.88;3.60;;;11.90;99.90;;;;;;4969694;28;20019;-65
2023/12/11 05:00:58;;;;;;;22.33;3.22;;;11.90;99.90;;;;;;4969642;28;20039;-65
2023/12/11 05:03:23;;;;;;;21.70;3.53;;;11.90;99.90;;;;;;4969857;28;20031;-65
2023/12/11 05:05:49;;;;;;;22.50;3.72;;;11.90;99.90;;;;;;4967217;28;20613;-65
2023/12/11 05:08:14;;;;;;;19.33;2.58;;;11.90;99.90;;;;;;4968415;28;20035;-65
2023/12/11 05:10:40;;;;;;;24.38;2.85;;;11.90;99.90;;;;;;4967334;28;20152;-65
2023/12/11 05:13:05;;;;;;;18.80;3.08;;;11.90;99.90;;;;;;4968201;28;20074;-66
2023/12/11 05:15:31;;;;;;;31.35;3.58;;;11.90;99.90;;;;;;4968270;28;20044;-64
2023/12/11 05:17:56;;;;;;;22.70;2.70;;;11.90;99.90;;;;;;4969472;28;20374;-65
2023/12/11 05:20:22;;;;;;;30.30;2.97;;;11.90;99.90;;;;;;4966989;28;20031;-64
2023/12/11 05:22:47;;;;;;;21.48;2.83;;;12.00;99.90;;;;;;4966172;28;20031;-64
2023/12/11 05:25:13;;;;;;;21.05;2.88;;;11.90;99.90;;;;;;4966600;28;20046;-63
2023/12/11 05:27:39;;;;;;;16.73;2.90;;;12.00;99.90;;;;;;4964556;28;20031;-64
2023/12/11 05:30:05;;;;;;;24.20;2.80;;;11.90;99.90;;;;;;4970238;28;20027;-64
2023/12/11 05:32:31;;;;;;;20.25;2.85;;;11.70;99.90;;;;;;4968275;28;20027;-65
2023/12/11 05:34:56;;;;;;;19.88;2.88;;;11.60;99.90;;;;;;4971364;28;20031;-64
2023/12/11 05:37:22;;;;;;;19.50;2.83;;;11.60;99.90;;;;;;4961976;28;20023;-64
2023/12/11 05:39:47;;;;;;;19.48;2.40;;;11.50;99.90;;;;;;4969626;28;20034;-65
2023/12/11 05:42:13;;;;;;;37.90;3.65;;;11.50;99.90;;;;;;4969700;28;20042;-65
2023/12/11 05:44:38;;;;;;;23.17;3.03;;;11.50;99.90;;;;;;4967676;28;20031;-65
2023/12/11 05:47:04;;;;;;;28.92;5.10;;;11.60;99.90;;;;;;4968542;28;20389;-65
2023/12/11 05:49:30;;;;;;;24.80;2.60;;;11.50;99.90;;;;;;4967646;28;20094;-65
2023/12/11 05:51:56;;;;;;;15.07;3.10;;;11.50;99.90;;;;;;4966878;28;20110;-64
2023/12/11 05:54:22;;;;;;;20.02;2.67;;;11.50;99.90;;;;;;4968196;28;20029;-64
2023/12/11 05:56:47;;;;;;;13.75;2.45;;;11.50;99.90;;;;;;4960231;28;20027;-64
2023/12/11 05:59:13;;;;;;;21.58;3.33;;;11.60;99.90;;;;;;4962961;28;20074;-64
2023/12/11 06:01:38;;;;;;;21.75;2.67;;;11.50;99.90;;;;;;4967408;28;20089;-64
2023/12/11 06:04:04;;;;;;;21.15;2.85;;;11.40;99.90;;;;;;4963369;28;20040;-63
2023/12/11 06:06:29;;;;;;;27.52;3.28;;;11.40;99.90;;;;;;4961103;28;20114;-64
2023/12/11 06:08:55;;;;;;;22.92;3.35;;;11.20;99.90;;;;;;4964063;28;20034;-64
2023/12/11 06:11:20;;;;;;;19.23;2.67;;;11.10;99.90;;;;;;4964573;28;20433;-64
2023/12/11 06:13:46;;;;;;;22.65;2.90;;;11.10;99.90;;;;;;4965071;28;20530;-64
2023/12/11 06:16:13;;;;;;;22.05;3.13;;;11.10;99.90;;;;;;4966025;28;20023;-63
2023/12/11 06:18:39;;;;;;;9.68;1.95;;;11.20;99.90;;;;;;4962935;28;20034;-65
2023/12/11 06:21:04;;;;;;;21.58;3.60;;;11.10;99.90;;;;;;4969100;28;20097;-64
2023/12/11 06:23:30;;;;;;;29.05;2.80;;;11.00;99.90;;;;;;4968725;28;20038;-65
2023/12/11 06:25:56;;;;;;;26.58;2.47;;;11.00;99.90;;;;;;4975063;28;20033;-65
2023/12/11 06:28:21;;;;;;;22.23;2.38;;;11.10;99.90;;;;;;4971914;28;20027;-65
2023/12/11 06:30:47;;;;;;;13.48;2.53;;;11.00;99.90;;;;;;4973796;28;20385;-65
2023/12/11 06:33:12;;;;;;;18.73;2.78;;;11.00;99.90;;;;;;4969005;28;20031;-65
2023/12/11 06:35:38;;;;;;;20.92;2.38;;;11.00;99.90;;;;;;4972185;28;20038;-65
2023/12/11 06:38:03;;;;;;;28.15;4.25;;;11.00;99.90;;;;;;4972436;28;20030;-64
2023/12/11 06:40:29;;;;;;;20.13;3.22;;;10.90;99.90;;;;;;4973848;28;20113;-64
2023/12/11 06:42:54;;;;;;;14.40;2.25;;;11.00;99.90;;;;;;4967613;28;20023;-65
2023/12/11 06:45:20;;;;;;;15.90;2.85;;;11.00;99.90;;;;;;4969686;28;20027;-65
2023/12/11 06:47:46;;;;;;;14.00;2.15;;;11.00;99.90;;;;;;4969378;28;20050;-65
2023/12/11 06:50:12;;;;;;;20.90;3.00;;;10.90;99.90;;;;;;4972426;28;20054;-65
2023/12/11 06:52:38;;;;;;;20.70;2.97;;;10.90;99.90;;;;;;4971524;28;20106;-65
2023/12/11 06:55:04;;;;;;;14.68;2.40;;;10.90;99.90;;;;;;4971459;28;20118;-64
2023/12/11 06:57:30;;;;;;;17.55;2.58;;;10.90;99.90;;;;;;4968835;28;20425;-65
2023/12/11 06:59:55;;;;;;;20.45;3.55;;;10.90;99.90;;;;;;4971234;28;20027;-64
2023/12/11 07:02:20;;;;;;;24.88;2.80;;;10.90;99.90;;;;;;4969996;28;20031;-65
2023/12/11 07:04:46;;;;;;;16.67;2.38;;;10.90;99.90;;;;;;4966085;28;20067;-65
2023/12/11 07:07:12;;;;;;;15.57;2.72;;;10.80;99.90;;;;;;4969146;28;20158;-65
2023/12/11 07:09:38;;;;;;;31.83;3.45;;;10.80;99.90;;;;;;4968369;28;20075;-64
2023/12/11 07:12:04;;;;;;;30.48;3.15;;;10.70;99.90;;;;;;4968444;28;20031;-64
2023/12/11 07:14:30;;;;;;;28.35;3.40;;;10.80;99.90;;;;;;4970051;28;20023;-64
2023/12/11 07:16:56;;;;;;;14.65;2.55;;;10.90;99.90;;;;;;4968247;28;20045;-65
2023/12/11 07:19:21;;;;;;;15.63;2.40;;;11.00;99.90;;;;;;4972820;28;20031;-65
2023/12/11 07:21:47;;;;;;;30.33;2.90;;;10.90;99.90;;;;;;4967376;28;20910;-64
2023/12/11 07:24:12;;;;;;;24.55;3.35;;;10.90;99.90;;;;;;4973977;28;20034;-65
2023/12/11 07:26:38;;;;;;;17.38;2.00;;;11.00;99.90;;;;;;4969060;28;20567;-64
2023/12/11 07:29:04;;;;;;;39.65;3.75;;;11.00;99.90;;;;;;4972973;28;20027;-64
2023/12/11 07:31:30;;;;;;;18.02;2.97;;;11.00;99.90;;;;;;4971948;28;20114;-66
2023/12/11 07:33:55;;;;;;;21.17;3.63;;;11.10;99.90;;;;;;4969706;28;20102;-64
2023/12/11 07:36:22;;;;;;;22.55;2.97;;;11.20;99.90;;;;;;4969179;28;20481;-63
2023/12/11 07:38:47;;;;;;;19.77;2.83;;;11.20;99.90;;;;;;4970264;28;20453;-63
2023/12/11 07:41:19;;;;;;;22.50;3.10;;;11.20;99.90;;;;;;4970324;28;20031;-64
2023/12/11 07:43:45;;;;;;;22.40;2.97;;;11.20;99.90;;;;;;4962802;28;20058;-64
2023/12/11 07:46:21;;;;;;;23.25;3.55;;;11.20;99.90;;;;;;4970737;28;20035;-65
2023/12/11 07:48:47;;;;;;;29.13;3.95;;;11.30;99.90;;;;;;4971956;28;20042;-64
2023/12/11 07:51:25;;;;;;;19.88;2.58;;;11.30;99.90;;;;;;4968856;28;20039;-64
2023/12/11 07:53:53;;;;;;;21.60;2.60;;;11.30;99.90;;;;;;4967704;28;20173;-63
2023/12/11 07:56:23;;;;;;;26.35;3.42;;;11.30;99.90;;;;;;4969040;28;20023;-64
2023/12/11 07:58:52;;;;;;;21.95;2.60;;;11.40;99.90;;;;;;4965128;28;20023;-65
2023/12/11 08:01:18;;;;;;;21.65;2.78;;;11.30;99.90;;;;;;4967613;28;20481;-64
2023/12/11 08:03:44;;;;;;;17.70;3.28;;;11.30;99.90;;;;;;4971683;28;20058;-65
2023/12/11 08:06:09;;;;;;;18.40;2.88;;;11.20;99.90;;;;;;4972299;28;20022;-66
2023/12/11 08:08:40;;;;;;;25.27;3.20;;;11.30;99.90;;;;;;4971501;28;20027;-64
2023/12/11 08:11:28;;;;;;;25.48;3.28;;;11.30;99.90;;;;;;4972923;28;20027;-65
2023/12/11 08:13:54;;;;;;;26.08;3.15;;;11.30;99.90;;;;;;4975506;28;20038;-64
2023/12/11 08:16:20;;;;;;;18.98;3.50;;;11.30;99.90;;;;;;4971968;28;20030;-64
2023/12/11 08:18:46;;;;;;;25.38;3.65;;;11.40;99.90;;;;;;4970047;28;20035;-64
2023/12/11 08:21:12;;;;;;;26.85;3.53;;;11.40;99.90;;;;;;4968503;28;20042;-65
2023/12/11 08:23:39;;;;;;;24.63;4.00;;;11.40;99.90;;;;;;4970761;28;20481;-65
2023/12/11 08:26:05;;;;;;;27.33;3.83;;;11.40;99.90;;;;;;4973070;28;20023;-65
2023/12/11 08:28:30;;;;;;;34.67;4.15;;;11.40;99.90;;;;;;4970887;28;20169;-65
2023/12/11 08:30:56;;;;;;;23.98;3.03;;;11.40;99.90;;;;;;4970034;28;20039;-64
2023/12/11 08:33:22;;;;;;;15.38;2.90;;;11.50;99.90;;;;;;4970268;28;20033;-65
2023/12/11 08:35:47;;;;;;;17.67;3.08;;;11.50;99.90;;;;;;4965302;28;20057;-64
2023/12/11 08:38:16;;;;;;;31.77;3.05;;;11.50;99.90;;;;;;4971532;28;20026;-64
2023/12/11 08:40:42;;;;;;;23.33;2.92;;;11.60;99.90;;;;;;4970791;28;20034;-64
2023/12/11 08:43:08;;;;;;;22.77;2.25;;;11.60;99.90;;;;;;4968657;28;20035;-64
2023/12/11 08:45:34;;;;;;;24.48;3.30;;;11.60;99.90;;;;;;4964819;28;20061;-64
2023/12/11 08:48:00;;;;;;;25.60;3.42;;;11.60;99.90;;;;;;4971348;28;20082;-65
2023/12/11 08:50:25;;;;;;;17.70;2.80;;;11.80;99.90;;;;;;4968033;28;20030;-65
2023/12/11 08:52:51;;;;;;;23.67;2.90;;;11.80;99.90;;;;;;4966255;28;20027;-65
2023/12/11 08:55:17;;;;;;;19.90;2.90;;;11.90;99.90;;;;;;4967902;28;20035;-65
2023/12/11 08:57:44;;;;;;;15.73;2.53;;;11.90;99.90;;;;;;4971729;28;20022;-64
2023/12/11 09:00:10;;;;;;;21.17;2.40;;;11.80;99.90;;;;;;4968339;28;20030;-65
2023/12/11 09:02:36;;;;;;;25.20;2.90;;;11.90;99.90;;;;;;4965972;28;20019;-64
2023/12/11 09:05:01;;;;;;;24.00;2.75;;;11.90;99.90;;;;;;4972052;28;20034;-65
2023/12/11 09:07:27;;;;;;;26.95;2.42;;;11.90;99.90;;;;;;4972524;28;20102;-64
2023/12/11 09:09:52;;;;;;;26.55;3.55;;;12.00;99.90;;;;;;4969225;28;20394;-64
2023/12/11 09:12:18;;;;;;;18.13;2.45;;;12.00;99.90;;;;;;4964846;28;20133;-65
2023/12/11 09:14:43;;;;;;;14.65;2.05;;;12.00;99.90;;;;;;4972041;28;20563;-64
2023/12/11 09:17:10;;;;;;;29.02;3.80;;;12.00;99.90;;;;;;4971351;28;20027;-64
2023/12/11 09:19:35;;;;;;;16.42;2.28;;;12.00;99.90;;;;;;4970747;28;20437;-64
2023/12/11 09:22:01;;;;;;;16.25;2.78;;;12.10;99.90;;;;;;4968790;28;20023;-64
2023/12/11 09:24:27;;;;;;;19.38;1.70;;;12.10;99.90;;;;;;4969654;28;20022;-65
2023/12/11 09:26:53;;;;;;;21.25;2.75;;;12.10;99.90;;;;;;4972129;28;20030;-64
2023/12/11 09:29:19;;;;;;;10.93;2.15;;;12.10;99.90;;;;;;4971838;28;20018;-64
2023/12/11 09:31:45;;;;;;;16.80;2.65;;;12.10;99.90;;;;;;4967689;28;20049;-64
2023/12/11 09:34:10;;;;;;;14.20;1.95;;;12.10;99.90;;;;;;4972363;28;20019;-64
2023/12/11 09:36:36;;;;;;;23.65;2.92;;;12.10;99.90;;;;;;4971713;28;20054;-65
2023/12/11 09:39:04;;;;;;;16.48;3.47;;;12.10;99.90;;;;;;4968689;28;20081;-65
2023/12/11 09:41:33;;;;;;;18.90;2.30;;;12.10;99.90;;;;;;4965910;28;20027;-64
2023/12/11 09:44:00;;;;;;;20.98;3.38;;;12.10;99.90;;;;;;4969786;28;20046;-64
2023/12/11 09:46:29;;;;;;;24.17;3.63;;;12.10;99.90;;;;;;4970644;28;20516;-65
2023/12/11 09:48:54;;;;;;;17.33;3.17;;;12.10;99.90;;;;;;4975970;28;20155;-65
2023/12/11 09:51:20;;;;;;;25.40;3.75;;;12.00;99.90;;;;;;4970554;28;20047;-66
2023/12/11 09:53:48;;;;;;;21.77;3.03;;;12.00;99.90;;;;;;4972627;28;20022;-66
2023/12/11 09:56:15;;;;;;;28.20;3.92;;;12.00;99.90;;;;;;4972291;28;20023;-65
2023/12/11 09:58:43;;;;;;;17.75;3.35;;;12.00;99.90;;;;;;4978650;28;20085;-65
2023/12/11 10:01:14;;;;;;;31.65;3.53;;;12.00;99.90;;;;;;4977819;28;20057;-65
2023/12/11 10:03:40;;;;;;;16.55;2.47;;;12.00;99.90;;;;;;4980438;28;20069;-64
2023/12/11 10:06:05;;;;;;;38.22;4.57;;;12.00;99.90;;;;;;4978977;28;20058;-65
2023/12/11 10:08:43;;;;;;;21.27;2.63;;;12.00;99.90;;;;;;4978788;28;20031;-65
2023/12/11 10:11:14;;;;;;;13.70;2.70;;;12.10;99.90;;;;;;4975269;28;20424;-65
2023/12/11 10:13:40;;;;;;;15.55;1.92;;;12.10;99.90;;;;;;4975225;28;20065;-65
2023/12/11 10:16:25;;;;;;;21.23;2.40;;;12.10;99.90;;;;;;4973779;28;20059;-65
2023/12/11 10:18:50;;;;;;;19.60;2.72;;;12.10;99.90;;;;;;4973523;28;20038;-65
2023/12/11 10:21:16;;;;;;;20.52;3.25;;;12.10;99.90;;;;;;4975874;28;20027;-65
2023/12/11 10:23:42;;;;;;;18.35;2.60;;;12.10;99.90;;;;;;4974938;28;20034;-65
2023/12/11 10:26:08;;;;;;;16.50;2.72;;;12.10;99.90;;;;;;4974937;28;20081;-66
2023/12/11 10:28:33;;;;;;;23.00;3.05;;;12.10;99.90;;;;;;4979862;28;20023;-65
2023/12/11 10:31:01;;;;;;;17.40;3.40;;;12.10;99.90;;;;;;4972989;28;20567;-65
2023/12/11 10:33:31;;;;;;;19.63;2.95;;;12.10;99.90;;;;;;4977987;28;20031;-65
2023/12/11 10:36:15;;;;;;;23.25;2.25;;;12.10;99.90;;;;;;4975267;28;20035;-65
2023/12/11 10:38:41;;;;;;;12.93;3.15;;;12.20;99.90;;;;;;4977086;28;20093;-64
2023/12/11 10:41:07;;;;;;;24.98;3.28;;;12.20;99.90;;;;;;4974480;28;20031;-64
2023/12/11 10:43:41;;;;;;;17.08;2.53;;;12.10;99.90;;;;;;4975487;28;20027;-66
2023/12/11 10:46:07;;;;;;;20.98;2.42;;;12.10;99.90;;;;;;4975341;28;20038;-65
2023/12/11 10:48:35;;;;;;;15.85;2.47;;;12.10;99.90;;;;;;4973101;28;20397;-65
2023/12/11 10:51:02;;;;;;;17.20;2.63;;;12.10;99.90;;;;;;4971680;28;20117;-64
2023/12/11 10:53:28;;;;;;;22.20;2.70;;;12.10;99.90;;;;;;4973336;28;20051;-64
2023/12/11 10:55:56;;;;;;;18.55;2.80;;;12.10;99.90;;;;;;4974292;28;20065;-67
2023/12/11 10:58:22;;;;;;;18.00;2.30;;;12.00;99.90;;;;;;4976533;28;20042;-64
2023/12/11 11:00:48;;;;;;;13.68;2.08;;;12.00;99.90;;;;;;4975981;28;20489;-64
2023/12/11 11:03:15;;;;;;;25.52;2.35;;;11.90;99.90;;;;;;4977927;28;20035;-64
2023/12/11 11:05:41;;;;;;;19.95;2.63;;;11.80;99.90;;;;;;4975967;28;20507;-64
2023/12/11 11:08:38;;;;;;;22.38;3.63;;;11.80;99.90;;;;;;4977434;28;20420;-64
2023/12/11 11:11:06;;;;;;;12.68;2.30;;;11.70;99.90;;;;;;4968494;28;20031;-65
2023/12/11 11:13:47;;;;;;;23.98;2.72;;;11.60;99.90;;;;;;4970934;28;20579;-64
2023/12/11 11:16:13;;;;;;;17.00;2.35;;;11.60;99.90;;;;;;4970071;28;20400;-65
2023/12/11 11:19:17;;;;;;;23.95;2.90;;;11.70;99.90;;;;;;4974600;28;20023;-64
2023/12/11 11:22:00;;;;;;;22.17;2.70;;;11.70;99.90;;;;;;4914446;29;20114;-63
2023/12/11 11:24:27;;;;;;;20.00;2.30;;;11.70;99.90;;;;;;4917314;29;20032;-64
2023/12/11 11:26:52;;;;;;;18.70;3.08;;;11.60;99.90;;;;;;4951995;28;20531;-64
2023/12/11 11:29:41;;;;;;;17.05;3.00;;;11.50;99.90;;;;;;4972372;28;20062;-64
2023/12/11 11:32:07;;;;;;;20.38;3.90;;;11.60;99.90;;;;;;4972841;28;20031;-65
2023/12/11 11:34:42;;;;;;;16.80;2.95;;;11.60;99.90;;;;;;4974206;28;20034;-65
2023/12/11 11:37:17;;;;;;;21.23;3.60;;;11.50;99.90;;;;;;4971063;28;20113;-65
2023/12/11 11:39:58;;;;;;;23.80;3.15;;;11.60;99.90;;;;;;4973745;28;20066;-65
2023/12/11 11:42:25;;;;;;;18.77;2.70;;;11.60;99.90;;;;;;4971515;28;20437;-65
2023/12/11 11:44:58;;;;;;;22.27;4.38;;;11.60;99.90;;;;;;4970820;28;20034;-65
2023/12/11 11:47:25;;;;;;;22.50;2.77;;;11.50;99.90;;;;;;4972182;28;20043;-65
2023/12/11 11:49:51;;;;;;;23.65;2.83;;;11.50;99.90;;;;;;4973203;28;20042;-65
2023/12/11 11:52:27;;;;;;;29.02;3.22;;;11.50;99.90;;;;;;4971332;28;20497;-65
2023/12/11 11:55:03;;;;;;;18.67;2.47;;;11.50;99.90;;;;;;4969095;28;20407;-65
2023/12/11 11:57:29;;;;;;;23.73;3.15;;;11.50;99.90;;;;;;4973205;28;20027;-65
2023/12/11 11:59:57;;;;;;;27.35;2.72;;;11.40;99.90;;;;;;4972040;28;20133;-65
2023/12/11 12:02:24;;;;;;;21.95;3.97;;;11.40;99.90;;;;;;4972436;28;20033;-64
2023/12/11 12:04:49;;;;;;;20.48;3.08;;;11.50;99.90;;;;;;4971787;28;20381;-65
2023/12/11 12:07:15;;;;;;;24.95;3.03;;;11.50;99.90;;;;;;4973714;28;20037;-65
2023/12/11 12:09:41;;;;;;;15.63;3.20;;;11.50;99.90;;;;;;4972309;28;20031;-65
2023/12/11 12:12:14;;;;;;;30.35;3.10;;;11.50;99.90;;;;;;4967373;28;20030;-65
2023/12/11 12:14:39;;;;;;;13.27;2.63;;;11.60;99.90;;;;;;4967223;28;20041;-65
2023/12/11 12:17:10;;;;;;;14.20;3.75;;;11.50;99.90;;;;;;4969953;28;20062;-65
2023/12/11 12:19:36;;;;;;;20.98;2.53;;;11.50;99.90;;;;;;4971942;28;20015;-65
2023/12/11 12:22:02;;;;;;;14.25;3.10;;;11.40;99.90;;;;;;4968822;28;20113;-65
2023/12/11 12:24:29;;;;;;;18.08;2.78;;;11.40;99.90;;;;;;4974540;28;20042;-65
2023/12/11 12:27:06;;;;;;;19.70;3.33;;;11.30;99.90;;;;;;4971886;28;20027;-65
2023/12/11 12:29:33;;;;;;;24.40;3.30;;;11.30;99.90;;;;;;4965817;28;20043;-65
2023/12/11 12:31:59;;;;;;;25.02;3.55;;;11.30;99.90;;;;;;4971151;28;20043;-64
2023/12/11 12:34:26;;;;;;;23.73;3.13;;;11.30;99.90;;;;;;4972351;28;20031;-65